Weather at Albert Airport

Public forecast

Using degrees Fahrenheit for public forecast. Weather courtesy of forecast.io.

Closest aviation weather report (METAR) to Albert Airport

Closest report is Clearfield Lawrence Airport, 9.0 nm (16.7 km) WNW. Retrieved 2020/09/27 01:54 UTC (1 hour ago):

KFIG 270154Z AUTO 35003KT 10SM CLR 15/13 A3002 RMK AO2 SLP163 T01500133

Closest aviation forecast (TAF) to Albert Airport

Closest forecast is University Park Airport, 19.3 nm (35.8 km) ESE. Retrieved 2020-09-27 00:22 UTC (3 hours ago):

TAF KUNV 262320Z 2700/2724 17004KT P6SM FEW030 FM270300 VRB03KT P6SM BKN015 FM270500 VRB05KT 5SM BR BKN010 FM270900 VRB03KT 4SM BR OVC005 FM271400 20009KT P6SM BKN035